• Join FlightAware (Why Join?)
  • Login
  • US Flag 
09:05AM EDT


 

Airport Tracker/Info


-or-


 

Live Flight TrackerFlight Track Log ✈ N400PU ✈ 03-Dec-2012 ✈ KLAF - KCAK

Flight Track Log - Related Links

Times and Time Zones

All times are in EST time to prevent confusion due to time zone crossing. See the N400PU flight status page for this flight to view local times or setup timezone preferences in your user account.

Time Position Orientation Groundspeed Altitude Reporting Facility
EST Latitude Longitude Course Direction KTS MPH feet Rate Location/Type
01:04PM 40.5119 -86.8728 81° East 315 362 11,300  Level Chicago Center
01:05PM 40.5242 -86.7686 81° East 292 336 13,900 2,100 Climbing Chicago Center
01:06PM 40.5361 -86.6506 82° East 308 354 15,600 1,740 Climbing Chicago Center
01:07PM 40.5625 -86.5294 74° East 333 383 17,400 1,920 Climbing Chicago Center
01:08PM 40.6036 -86.4264 62° Northeast 343 395 19,500 2,220 Climbing Chicago Center
01:09PM 40.5231 -85.9439 81° East  Level Estimated
01:09PM 40.6550 -86.3175 58° Northeast 349 402 21,900  Level Chicago Center
01:10PM 40.7022 -86.2139 59° Northeast 344 396 24,200 1,500 Climbing Chicago Center
01:11PM 40.7533 -86.1017 59° Northeast 344 396 25,000 360 Climbing Chicago Center
01:12PM 40.7656 -85.9558 84° East 411 473 25,000  Level Chicago Center
01:13PM 40.7706 -85.7772 88° East 432 497 25,000  Level Chicago Center
01:14PM 40.7778 -85.6097 87° East 444 511 25,000  Level Chicago Center
01:16PM 40.7925 -85.3003 86° East 468 539 25,000  Level Indianapolis Center
01:17PM 40.7992 -85.1250 87° East 468 539 25,000  Level Indianapolis Center
01:19PM 40.8108 -84.7892 87° East 493 567 25,000  Level Cleveland Center
01:20PM 40.8175 -84.6083 87° East 488 562 25,000 -60 Level Cleveland Center
01:21PM 40.8211 -84.4383 88° East 481 554 24,900 -840 Descending Cleveland Center
01:22PM 40.8228 -84.2656 89° East 476 548 23,400 -1,800 Descending Cleveland Center
01:23PM 40.8217 -84.0981 90° East 465 535 21,300 -2,340 Descending Cleveland Center
01:24PM 40.8203 -83.9389 91° East 452 520 18,800 -2,400 Descending Cleveland Center
01:25PM 40.8186 -83.7825 91° East 432 497 16,500 -1,920 Descending Cleveland Center
01:26PM 40.8164 -83.6342 91° East 414 476 15,000 -840 Descending Cleveland Center
01:27PM 40.8139 -83.4914 91° East 395 455 14,900 -60 Descending Cleveland Center
01:28PM 40.8133 -83.3486 90° East 390 449 14,900  Level Cleveland Center
01:29PM 40.8108 -83.1894 91° East 390 449 14,900  Level Cleveland Center
01:30PM 40.8078 -83.0383 91° East 395 455 14,900  Level Cleveland Center
01:31PM 40.8047 -82.8900 92° East 400 460 14,900  Level Cleveland Center
01:32PM 40.8011 -82.7556 92° East 407 468 14,900  Level Cleveland Center
01:33PM 40.7997 -82.6047 91° East 407 468 14,900 -540 Level Cleveland Center
01:34PM 40.7936 -82.4644 93° East 397 457 13,900 -1,140 Descending Cleveland Center
01:35PM 40.7917 -82.3328 91° East 372 428 12,700 -1,440 Descending Cleveland Center
01:36PM 40.7892 -82.2175 92° East 333 383 11,100 -1,560 Descending Cleveland Center
01:37PM 40.7867 -82.1050 92° East 315 362 9,600 -1,080 Descending Cleveland Center
01:38PM 40.7839 -81.9925 92° East 309 356 9,000 -840 Descending Cleveland Center
01:39PM 40.7831 -81.8828 91° East 304 350 8,000 -1,500 Descending Cleveland Center
01:40PM 40.7800 -81.7731 92° East 304 350 6,100 -1,500 Descending Cleveland Center
01:41PM 40.8228 -81.6861 57° Northeast 257 296 5,000 -600 Descending Cleveland Center
01:42PM 40.8817 -81.6239 39° Northeast 252 290 5,000  Level Cleveland Center
01:43PM 40.9386 -81.5561 42° Northeast 263 303 5,000 -300 Level Cleveland Center
01:44PM 41.0075 -81.5186 22° Northeast 270 311 4,500 -540 Descending Cleveland Center
01:46PM 40.9151 -81.4436 57° Northeast  Level Estimated
01:53PM 40.9151 -81.4436 57° Northeast  Level Estimated
01:54PM 40.9151 -81.4436 57° Northeast  Level Estimated